createdAt,value
2023-09-27T00:00:28.502Z,101900.09
2023-09-27T00:01:30.420Z,101909.71
2023-09-27T00:02:32.648Z,101910.61
2023-09-27T00:03:34.862Z,101900.95
2023-09-27T00:04:36.918Z,101908.84
2023-09-27T00:05:39.062Z,101909.70
2023-09-27T00:06:41.127Z,101907.06
2023-09-27T00:07:43.062Z,101912.33
2023-09-27T00:08:45.188Z,101918.45
2023-09-27T00:09:47.122Z,101910.55
2023-09-27T00:10:49.301Z,101913.19
2023-09-27T00:11:51.144Z,101915.81
2023-09-27T00:12:52.998Z,101911.44
2023-09-27T00:13:55.114Z,101914.06
2023-09-27T00:14:56.961Z,101914.06
2023-09-27T00:15:59.094Z,101906.17
2023-09-27T00:17:01.365Z,101913.16
2023-09-27T00:18:03.251Z,101914.05
2023-09-27T00:19:05.232Z,101910.51
2023-09-27T00:20:07.806Z,101914.89
2023-09-27T00:21:09.813Z,101910.49
2023-09-27T00:22:11.681Z,101911.35
2023-09-27T00:23:13.645Z,101908.72
2023-09-27T00:24:15.568Z,101910.48
2023-09-27T00:25:17.413Z,101917.48
2023-09-27T00:26:19.364Z,101910.42
2023-09-27T00:27:21.333Z,101911.28
2023-09-27T00:28:23.319Z,101904.30
2023-09-27T00:29:25.405Z,101912.18
2023-09-27T00:30:27.386Z,101914.80
2023-09-27T00:31:29.257Z,101913.89
2023-09-27T00:32:31.213Z,101908.63
2023-09-27T00:33:33.137Z,101913.01
2023-09-27T00:34:35.268Z,101912.10
2023-09-27T00:35:37.128Z,101911.22
2023-09-27T00:36:39.079Z,101910.35
2023-09-27T00:37:41.174Z,101915.61
2023-09-27T00:38:43.031Z,101912.97
2023-09-27T00:39:45.022Z,101914.70
2023-09-27T00:40:46.988Z,101912.07
2023-09-27T00:41:48.871Z,101912.06
2023-09-27T00:42:50.770Z,101922.57
2023-09-27T00:43:52.671Z,101919.95
2023-09-27T00:44:54.655Z,101925.21
2023-09-27T00:45:56.504Z,101922.60
2023-09-27T00:46:58.520Z,101921.73
2023-09-27T00:48:00.494Z,101917.36
2023-09-27T00:49:02.438Z,101917.36
2023-09-27T00:50:04.443Z,101915.65
2023-09-27T00:51:06.295Z,101907.77
2023-09-27T00:52:08.166Z,101912.17
2023-09-27T00:53:10.088Z,101913.03
2023-09-27T00:54:12.097Z,101915.65
2023-09-27T00:55:14.086Z,101912.11
2023-09-27T00:56:16.208Z,101925.23
2023-09-27T00:57:18.039Z,101923.50
2023-09-27T00:58:19.896Z,101918.25
2023-09-27T00:59:21.885Z,101917.34
2023-09-27T01:00:23.801Z,101916.47
2023-09-27T01:01:25.894Z,101918.23
2023-09-27T01:02:28.003Z,101919.95
2023-09-27T01:03:30.066Z,101917.32
2023-09-27T01:04:32.065Z,101916.45
2023-09-27T01:05:34.090Z,101919.93
2023-09-27T01:06:36.300Z,101919.08
2023-09-27T01:07:38.140Z,101920.84
2023-09-27T01:08:40.082Z,101924.34
2023-09-27T01:09:41.947Z,101918.23
2023-09-27T01:10:44.000Z,101923.48
2023-09-27T01:11:45.824Z,101922.58
2023-09-27T01:12:47.785Z,101925.21
2023-09-27T01:13:49.806Z,101918.23
2023-09-27T01:14:51.904Z,101926.97
2023-09-27T01:15:53.807Z,101925.20
2023-09-27T01:16:55.669Z,101923.47
2023-09-27T01:17:57.516Z,101922.56
2023-09-27T01:18:59.400Z,101931.34
2023-09-27T01:20:01.400Z,101922.55
2023-09-27T01:21:03.601Z,101925.17
2023-09-27T01:22:05.442Z,101926.02
2023-09-27T01:23:07.383Z,101928.63
2023-09-27T01:24:09.338Z,101919.02
2023-09-27T01:25:11.188Z,101924.27
2023-09-27T01:26:13.728Z,101926.01
2023-09-27T01:27:15.677Z,101922.52
2023-09-27T01:28:17.531Z,101919.03
2023-09-27T01:29:19.450Z,101919.03
2023-09-27T01:30:21.482Z,101924.28
2023-09-27T01:31:23.574Z,101919.89
2023-09-27T01:32:25.490Z,101926.92
2023-09-27T01:33:27.463Z,101927.79
2023-09-27T01:34:29.568Z,101925.16
2023-09-27T01:35:31.641Z,101924.30
2023-09-27T01:36:33.502Z,101923.41
2023-09-27T01:37:35.345Z,101928.65
2023-09-27T01:38:37.173Z,101927.78
2023-09-27T01:39:39.056Z,101929.55
2023-09-27T01:40:41.128Z,101926.03
2023-09-27T01:41:43.114Z,101926.94
2023-09-27T01:42:45.004Z,101927.81
2023-09-27T01:43:46.912Z,101926.95
2023-09-27T01:44:48.809Z,101924.33
2023-09-27T01:45:50.647Z,101926.09
2023-09-27T01:46:52.658Z,101924.34
2023-09-27T01:47:54.512Z,101927.83
2023-09-27T01:48:56.512Z,101925.20
2023-09-27T01:49:58.373Z,101925.21
2023-09-27T01:51:00.277Z,101922.59
2023-09-27T01:52:02.131Z,101924.34
2023-09-27T01:53:04.178Z,101930.45
2023-09-27T01:54:06.100Z,101922.55
2023-09-27T01:55:08.212Z,101933.90
2023-09-27T01:56:11.070Z,101927.75
2023-09-27T01:57:12.972Z,101928.59
2023-09-27T01:58:14.899Z,101930.33
2023-09-27T01:59:16.868Z,101926.81
2023-09-27T02:00:19.387Z,101929.38
2023-09-27T02:01:21.317Z,101925.87
2023-09-27T02:02:23.248Z,101928.47
2023-09-27T02:03:25.222Z,101931.95
2023-09-27T02:04:27.162Z,101929.30
2023-09-27T02:05:29.253Z,101929.28
2023-09-27T02:06:31.424Z,101934.52
2023-09-27T02:07:33.350Z,101933.64
2023-09-27T02:08:35.364Z,101937.98
2023-09-27T02:09:37.254Z,101935.36
2023-09-27T02:10:39.981Z,101944.96
2023-09-27T02:11:41.958Z,101933.59
2023-09-27T02:12:43.919Z,101934.44
2023-09-27T02:13:45.891Z,101936.19
2023-09-27T02:14:47.791Z,101934.42
2023-09-27T02:15:49.689Z,101935.27
2023-09-27T02:16:51.533Z,101936.98
2023-09-27T02:17:53.501Z,101935.19
2023-09-27T02:18:55.924Z,101932.55
2023-09-27T02:19:58.092Z,101936.02
2023-09-27T02:21:00.055Z,101933.39
2023-09-27T02:22:02.410Z,101934.30
2023-09-27T02:23:04.461Z,101935.17
2023-09-27T02:24:06.309Z,101936.94
2023-09-27T02:25:08.168Z,101930.84
2023-09-27T02:26:10.858Z,101933.48
2023-09-27T02:27:12.723Z,101932.64
2023-09-27T02:28:14.686Z,101937.90
2023-09-27T02:29:16.563Z,101938.79
2023-09-27T02:30:18.581Z,101940.52
2023-09-27T02:31:20.545Z,101933.55
2023-09-27T02:32:22.524Z,101936.20
2023-09-27T02:33:24.725Z,101941.46
2023-09-27T02:34:26.615Z,101937.95
2023-09-27T02:35:28.475Z,101941.50
2023-09-27T02:36:30.459Z,101935.41
2023-09-27T02:37:32.312Z,101931.89
2023-09-27T02:38:34.229Z,101931.05
2023-09-27T02:39:36.061Z,101931.06
2023-09-27T02:40:38.135Z,101925.81
2023-09-27T02:41:40.004Z,101937.20
2023-09-27T02:42:41.798Z,101932.86
2023-09-27T02:43:43.725Z,101934.60
2023-09-27T02:44:45.582Z,101931.98
2023-09-27T02:45:47.447Z,101932.89
2023-09-27T02:46:49.308Z,101936.39
2023-09-27T02:47:51.196Z,101935.54
2023-09-27T02:48:53.261Z,101932.92
2023-09-27T02:49:55.256Z,101933.80
2023-09-27T02:50:57.102Z,101931.19
2023-09-27T02:51:58.950Z,101940.84
2023-09-27T02:53:00.821Z,101940.84
2023-09-27T02:54:02.679Z,101937.35
2023-09-27T02:55:04.540Z,101939.09
2023-09-27T02:56:06.865Z,101935.61
2023-09-27T02:57:08.784Z,101933.85
2023-09-27T02:58:10.649Z,101932.98
2023-09-27T02:59:13.085Z,101939.98
2023-09-27T03:00:15.138Z,101932.95
2023-09-27T03:01:17.031Z,101937.31
2023-09-27T03:02:19.003Z,101939.02
2023-09-27T03:03:21.072Z,101939.88
2023-09-27T03:04:23.105Z,101938.13
2023-09-27T03:05:25.044Z,101938.98
2023-09-27T03:06:26.958Z,101931.08
2023-09-27T03:07:28.778Z,101930.21
2023-09-27T03:08:30.821Z,101937.17
2023-09-27T03:09:32.756Z,101943.31
2023-09-27T03:10:34.652Z,101939.79
2023-09-27T03:11:36.596Z,101938.05
2023-09-27T03:12:38.535Z,101942.38
2023-09-27T03:13:40.416Z,101944.12
2023-09-27T03:14:42.305Z,101941.50
2023-09-27T03:15:44.194Z,101941.50
2023-09-27T03:16:46.048Z,101938.86
2023-09-27T03:17:47.919Z,101947.59
2023-09-27T03:18:49.857Z,101941.45
2023-09-27T03:19:51.856Z,101935.28
2023-09-27T03:20:53.686Z,101938.79
2023-09-27T03:21:55.586Z,101941.36
2023-09-27T03:22:57.475Z,101947.45
2023-09-27T03:23:59.380Z,101946.56
2023-09-27T03:25:01.266Z,101943.90
2023-09-27T03:26:03.140Z,101939.52
2023-09-27T03:27:04.976Z,101939.50
2023-09-27T03:28:06.931Z,101941.20
2023-09-27T03:29:09.289Z,101945.56
2023-09-27T03:30:11.238Z,101938.53
2023-09-27T03:31:13.104Z,101943.76
2023-09-27T03:32:15.043Z,101943.74
2023-09-27T03:33:17.007Z,101941.11
2023-09-27T03:34:18.901Z,101950.72
2023-09-27T03:35:20.920Z,101949.81
2023-09-27T03:36:22.791Z,101951.57
2023-09-27T03:37:24.648Z,101954.19
2023-09-27T03:38:26.486Z,101954.20
2023-09-27T03:39:28.311Z,101953.35
2023-09-27T03:40:30.211Z,101949.88
2023-09-27T03:41:32.820Z,101945.52
2023-09-27T03:42:34.689Z,101942.91
2023-09-27T03:43:36.663Z,101956.06
2023-09-27T03:44:38.505Z,101954.34
2023-09-27T03:45:40.396Z,101954.38
2023-09-27T03:46:42.545Z,101950.06
2023-09-27T03:47:44.455Z,101941.34
2023-09-27T03:48:46.544Z,101946.60
2023-09-27T03:49:48.390Z,101948.39
2023-09-27T03:50:50.368Z,101949.31
2023-09-27T03:51:52.235Z,101950.20
2023-09-27T03:52:54.086Z,101947.58
2023-09-27T03:53:55.952Z,101951.97
2023-09-27T03:54:57.778Z,101954.58
2023-09-27T03:55:59.699Z,101949.34
2023-09-27T03:57:01.516Z,101956.33
2023-09-27T03:58:03.424Z,101957.24
2023-09-27T03:59:05.231Z,101956.36
2023-09-27T04:00:07.178Z,101958.14
2023-09-27T04:01:09.576Z,101958.16
2023-09-27T04:02:11.494Z,101964.33
2023-09-27T04:03:13.567Z,101953.86
2023-09-27T04:04:15.612Z,101955.59
2023-09-27T04:05:17.362Z,101959.13
